createdAt,value
2023-03-06T00:00:17.977Z,8.70
2023-03-06T00:02:46.504Z,7.97
2023-03-06T00:05:15.268Z,8.30
2023-03-06T00:07:43.750Z,8.70
2023-03-06T00:10:16.390Z,8.23
2023-03-06T00:12:44.375Z,8.40
2023-03-06T00:15:13.857Z,7.67
2023-03-06T00:17:41.885Z,7.47
2023-03-06T00:20:11.816Z,8.30
2023-03-06T00:22:40.389Z,8.50
2023-03-06T00:25:10.141Z,9.43
2023-03-06T00:27:39.461Z,8.27
2023-03-06T00:30:09.145Z,8.17
2023-03-06T00:32:37.112Z,7.80
2023-03-06T00:35:05.679Z,8.17
2023-03-06T00:37:33.627Z,8.83
2023-03-06T00:40:01.627Z,8.13
2023-03-06T00:42:29.472Z,8.80
2023-03-06T00:44:58.795Z,8.43
2023-03-06T00:47:26.956Z,8.53
2023-03-06T00:49:54.854Z,9.30
2023-03-06T00:52:22.734Z,9.50
2023-03-06T00:54:50.889Z,9.03
2023-03-06T00:57:18.893Z,9.23
2023-03-06T00:59:46.937Z,8.50
2023-03-06T01:02:16.312Z,9.00
2023-03-06T01:04:44.450Z,8.57
2023-03-06T01:07:12.521Z,8.10
2023-03-06T01:09:40.474Z,7.97
2023-03-06T01:12:09.311Z,8.47
2023-03-06T01:14:37.220Z,8.20
2023-03-06T01:17:05.135Z,8.73
2023-03-06T01:19:34.430Z,8.37
2023-03-06T01:22:02.264Z,8.20
2023-03-06T01:24:30.135Z,8.13
2023-03-06T01:26:58.129Z,9.13
2023-03-06T01:29:26.566Z,8.73
2023-03-06T01:31:54.629Z,9.23
2023-03-06T01:34:22.537Z,8.40
2023-03-06T01:36:51.807Z,9.17
2023-03-06T01:39:19.694Z,8.80
2023-03-06T01:41:47.580Z,8.97
2023-03-06T01:44:15.548Z,8.20
2023-03-06T01:46:43.637Z,8.40
2023-03-06T01:49:19.611Z,7.93
2023-03-06T01:51:54.570Z,8.73
2023-03-06T01:54:26.411Z,8.13
2023-03-06T01:56:58.338Z,8.50
2023-03-06T01:59:27.723Z,8.13
2023-03-06T02:01:57.179Z,8.90
2023-03-06T02:04:25.822Z,8.87
2023-03-06T02:06:56.619Z,9.23
2023-03-06T02:09:24.499Z,9.03
2023-03-06T02:11:52.352Z,8.93
2023-03-06T02:14:20.460Z,9.13
2023-03-06T02:16:49.322Z,9.83
2023-03-06T02:19:31.958Z,9.60
2023-03-06T02:22:01.493Z,9.57
2023-03-06T02:24:39.227Z,11.50
2023-03-06T02:27:09.375Z,9.97
2023-03-06T02:29:37.400Z,9.33
2023-03-06T02:32:06.106Z,9.67
2023-03-06T02:34:58.188Z,9.07
2023-03-06T02:37:29.420Z,9.03
2023-03-06T02:40:08.146Z,9.90
2023-03-06T02:42:37.647Z,8.63
2023-03-06T02:45:10.762Z,9.40
2023-03-06T02:47:38.682Z,8.90
2023-03-06T02:50:06.921Z,9.60
2023-03-06T02:52:34.807Z,8.83
2023-03-06T02:55:02.685Z,8.83
2023-03-06T02:57:30.569Z,8.57
2023-03-06T02:59:59.798Z,9.10
2023-03-06T03:02:28.919Z,9.00
2023-03-06T03:04:56.831Z,8.63
2023-03-06T03:07:24.763Z,8.80
2023-03-06T03:09:52.607Z,8.90
2023-03-06T03:12:22.405Z,9.50
2023-03-06T03:14:50.398Z,9.10
2023-03-06T03:17:19.764Z,8.57
2023-03-06T03:19:47.658Z,9.77
2023-03-06T03:22:15.587Z,9.37
2023-03-06T03:24:43.607Z,9.63
2023-03-06T03:27:12.206Z,9.40
2023-03-06T03:29:40.079Z,9.63
2023-03-06T03:32:08.407Z,10.23
2023-03-06T03:34:37.653Z,9.27
2023-03-06T03:37:05.770Z,10.77
2023-03-06T03:39:33.817Z,9.13
2023-03-06T03:42:01.775Z,10.20
2023-03-06T03:44:29.667Z,10.20
2023-03-06T03:46:57.561Z,10.67
2023-03-06T03:49:25.732Z,10.80
2023-03-06T03:51:55.115Z,10.27
2023-03-06T03:54:23.318Z,10.53
2023-03-06T03:56:51.190Z,9.60
2023-03-06T03:59:19.060Z,10.30
2023-03-06T04:01:47.003Z,11.20
2023-03-06T04:04:14.934Z,11.63
2023-03-06T04:06:42.809Z,11.40
2023-03-06T04:09:12.064Z,11.30
2023-03-06T04:11:39.963Z,10.70
2023-03-06T04:14:08.314Z,11.43
2023-03-06T04:16:36.319Z,11.27
2023-03-06T04:19:04.708Z,11.50
2023-03-06T04:21:32.556Z,11.20
2023-03-06T04:24:00.430Z,11.90
2023-03-06T04:26:29.669Z,11.40
2023-03-06T04:28:58.557Z,12.80
2023-03-06T04:31:26.735Z,12.20
2023-03-06T04:33:54.745Z,12.17
2023-03-06T04:36:28.266Z,12.13
2023-03-06T04:38:56.477Z,13.57
2023-03-06T04:41:24.535Z,12.43
2023-03-06T04:43:54.129Z,12.23
2023-03-06T04:46:21.986Z,12.80
2023-03-06T04:48:49.838Z,13.53
2023-03-06T04:51:17.778Z,13.80
2023-03-06T04:53:45.691Z,12.70
2023-03-06T04:56:13.601Z,12.30
2023-03-06T04:58:41.481Z,12.77
2023-03-06T05:01:10.883Z,12.63
2023-03-06T05:03:38.995Z,12.70
2023-03-06T05:06:07.336Z,12.53
2023-03-06T05:08:35.423Z,12.37
2023-03-06T05:11:04.691Z,12.37
2023-03-06T05:13:32.602Z,12.60
2023-03-06T05:16:04.324Z,13.00
2023-03-06T05:18:36.197Z,12.73
2023-03-06T05:21:05.817Z,12.03
2023-03-06T05:23:35.414Z,13.00
2023-03-06T05:26:08.089Z,13.03
2023-03-06T05:28:36.013Z,12.67
2023-03-06T05:31:04.713Z,12.73
2023-03-06T05:33:34.249Z,13.17
2023-03-06T05:36:02.280Z,12.53
2023-03-06T05:38:30.240Z,12.80
2023-03-06T05:40:58.073Z,13.57
2023-03-06T05:43:25.979Z,12.57
2023-03-06T05:46:02.581Z,13.03
2023-03-06T05:48:30.599Z,13.53
2023-03-06T05:51:01.273Z,12.53
2023-03-06T05:53:29.538Z,13.97
2023-03-06T05:55:58.390Z,13.27
2023-03-06T05:58:26.407Z,12.93
2023-03-06T06:00:54.323Z,13.07
2023-03-06T06:03:22.661Z,12.93
2023-03-06T06:05:50.962Z,13.90
2023-03-06T06:08:20.660Z,13.67
2023-03-06T06:10:48.490Z,12.47
2023-03-06T06:13:16.394Z,12.17
2023-03-06T06:15:44.316Z,12.53
2023-03-06T06:18:12.160Z,12.43
2023-03-06T06:20:40.070Z,13.23
2023-03-06T06:23:07.945Z,13.37
2023-03-06T06:25:37.914Z,11.40
2023-03-06T06:28:06.731Z,13.70
2023-03-06T06:30:34.965Z,13.83
2023-03-06T06:33:02.793Z,13.67
2023-03-06T06:35:30.746Z,13.53
2023-03-06T06:37:58.647Z,13.67
2023-03-06T06:40:27.629Z,13.83
2023-03-06T06:42:56.905Z,13.97
2023-03-06T06:45:24.862Z,14.27
2023-03-06T06:47:52.822Z,14.53
2023-03-06T06:50:21.012Z,15.07
2023-03-06T06:52:49.169Z,14.80
2023-03-06T06:55:17.353Z,14.00
2023-03-06T06:57:45.302Z,14.43
2023-03-06T07:00:16.978Z,15.40
2023-03-06T07:02:48.999Z,14.07
2023-03-06T07:05:17.159Z,13.90
2023-03-06T07:07:45.048Z,13.23
2023-03-06T07:10:15.409Z,14.70
2023-03-06T07:12:43.495Z,14.03
2023-03-06T07:15:16.540Z,13.63
2023-03-06T07:17:44.638Z,14.10
2023-03-06T07:20:13.044Z,13.63
2023-03-06T07:22:51.015Z,13.30
2023-03-06T07:25:22.490Z,14.33
2023-03-06T07:27:54.179Z,13.53
2023-03-06T07:30:24.546Z,13.37
2023-03-06T07:32:56.132Z,13.43
2023-03-06T07:35:25.429Z,13.87
2023-03-06T07:37:53.754Z,13.37
2023-03-06T07:40:22.161Z,13.13
2023-03-06T07:42:50.059Z,14.50
2023-03-06T07:45:17.943Z,13.13
2023-03-06T07:47:47.400Z,12.87
2023-03-06T07:50:15.253Z,13.47
2023-03-06T07:52:43.220Z,13.40
2023-03-06T07:55:12.116Z,14.00
2023-03-06T07:57:40.070Z,13.73
2023-03-06T08:00:10.824Z,12.80
2023-03-06T08:02:38.776Z,13.57
2023-03-06T08:05:09.302Z,13.87
2023-03-06T08:07:37.202Z,12.37
2023-03-06T08:10:05.606Z,12.60
2023-03-06T08:12:33.544Z,12.93
2023-03-06T08:15:01.462Z,12.33
2023-03-06T08:17:29.336Z,12.63
2023-03-06T08:19:57.579Z,12.33
2023-03-06T08:22:26.841Z,13.23
2023-03-06T08:24:55.965Z,12.23
2023-03-06T08:27:24.071Z,11.70
2023-03-06T08:29:51.917Z,12.93
2023-03-06T08:32:20.016Z,12.53
2023-03-06T08:34:47.942Z,13.37
2023-03-06T08:37:15.864Z,12.50
2023-03-06T08:39:45.162Z,12.10
2023-03-06T08:42:13.055Z,12.77
2023-03-06T08:44:40.944Z,13.17
2023-03-06T08:47:08.856Z,13.27
2023-03-06T08:49:39.658Z,12.57
2023-03-06T08:52:08.198Z,13.50
2023-03-06T08:54:36.606Z,13.17
2023-03-06T08:57:06.080Z,12.37
2023-03-06T08:59:33.949Z,13.67
2023-03-06T09:02:02.216Z,13.03
2023-03-06T09:04:31.474Z,13.70
2023-03-06T09:07:01.632Z,13.10
2023-03-06T09:09:29.488Z,14.57
2023-03-06T09:11:57.359Z,14.53
2023-03-06T09:14:26.610Z,13.17
2023-03-06T09:16:54.472Z,14.10
2023-03-06T09:19:22.403Z,14.80
2023-03-06T09:21:50.291Z,15.67
2023-03-06T09:24:18.388Z,13.93
2023-03-06T09:26:47.673Z,14.50
2023-03-06T09:29:17.555Z,14.07
2023-03-06T09:31:47.146Z,13.80
2023-03-06T09:34:15.025Z,13.30
2023-03-06T09:36:55.939Z,13.70
2023-03-06T09:39:25.735Z,12.13
2023-03-06T09:41:54.520Z,12.87
2023-03-06T09:44:26.041Z,12.67
2023-03-06T09:47:32.442Z,13.17
2023-03-06T09:50:28.353Z,12.57
2023-03-06T09:53:20.067Z,12.97
2023-03-06T09:55:51.541Z,11.80
2023-03-06T09:58:23.048Z,11.67
2023-03-06T10:01:00.756Z,12.17
2023-03-06T10:03:32.495Z,11.43
2023-03-06T10:06:05.469Z,10.70
2023-03-06T10:08:44.589Z,11.37
2023-03-06T10:11:17.488Z,10.10
2023-03-06T10:13:49.307Z,10.73
2023-03-06T10:16:26.740Z,10.60
2023-03-06T10:18:55.415Z,8.80
2023-03-06T10:21:43.446Z,9.73
2023-03-06T10:24:21.553Z,9.17
2023-03-06T10:26:56.288Z,9.20
2023-03-06T10:29:37.610Z,8.70
2023-03-06T10:32:13.560Z,8.33
2023-03-06T10:34:42.929Z,8.20
2023-03-06T10:37:19.773Z,8.30
2023-03-06T10:39:49.521Z,8.40
2023-03-06T10:42:17.683Z,8.03
2023-03-06T10:44:45.754Z,8.07
2023-03-06T10:47:31.197Z,8.50
2023-03-06T10:50:01.409Z,8.27
2023-03-06T10:52:35.053Z,8.20
2023-03-06T10:55:25.473Z,7.97
2023-03-06T10:57:53.658Z,7.73
2023-03-06T11:00:28.613Z,8.33
2023-03-06T11:03:07.596Z,8.67
2023-03-06T11:05:35.436Z,8.00
2023-03-06T11:08:04.929Z,8.03
2023-03-06T11:10:34.977Z,8.43
2023-03-06T11:13:06.271Z,8.17
2023-03-06T11:15:35.111Z,8.80
2023-03-06T11:18:05.431Z,8.80
2023-03-06T11:20:50.074Z,8.30
2023-03-06T11:23:26.355Z,10.50
2023-03-06T11:25:58.613Z,8.37
2023-03-06T11:28:31.456Z,8.17
2023-03-06T11:31:03.221Z,8.17
2023-03-06T11:33:38.253Z,9.00
2023-03-06T11:36:14.507Z,8.87
2023-03-06T11:38:50.016Z,8.63
2023-03-06T11:41:30.199Z,8.50
2023-03-06T11:44:07.102Z,8.57
2023-03-06T11:46:40.196Z,7.87
2023-03-06T11:49:18.154Z,8.40
2023-03-06T11:51:51.067Z,7.90
2023-03-06T11:54:20.571Z,8.40
2023-03-06T11:56:56.083Z,8.27
2023-03-06T11:59:51.273Z,8.30
2023-03-06T12:02:43.010Z,8.90
2023-03-06T12:05:27.904Z,8.10
2023-03-06T12:08:04.607Z,7.83
2023-03-06T12:10:39.770Z,7.33
2023-03-06T12:16:09.133Z,8.07
2023-03-06T12:18:51.776Z,7.30
2023-03-06T12:21:32.612Z,7.43
2023-03-06T12:24:25.846Z,7.33
2023-03-06T12:27:09.575Z,6.67
2023-03-06T12:29:50.780Z,6.67
2023-03-06T12:32:30.328Z,6.37
2023-03-06T12:35:15.118Z,6.10
2023-03-06T12:37:56.254Z,6.50
2023-03-06T12:40:45.114Z,6.00
2023-03-06T12:43:44.577Z,6.77
2023-03-06T12:46:16.533Z,6.57
2023-03-06T12:48:49.551Z,6.57
2023-03-06T12:51:21.278Z,6.67
2023-03-06T12:53:51.327Z,7.50
2023-03-06T12:56:21.849Z,6.60
2023-03-06T12:58:53.713Z,7.13
2023-03-06T13:01:54.025Z,7.37
2023-03-06T13:05:01.358Z,7.03
2023-03-06T13:07:57.623Z,6.57
2023-03-06T13:10:30.122Z,7.20
2023-03-06T13:13:01.109Z,6.80
2023-03-06T13:15:37.559Z,6.60
2023-03-06T13:18:38.894Z,7.23
2023-03-06T13:21:06.770Z,7.23
2023-03-06T13:23:52.674Z,7.57
2023-03-06T13:26:56.096Z,7.47
2023-03-06T13:29:48.871Z,6.87
2023-03-06T13:32:20.776Z,7.43
2023-03-06T13:34:51.684Z,7.00
2023-03-06T13:37:39.204Z,7.03
2023-03-06T13:40:27.260Z,7.97
2023-03-06T13:43:04.827Z,8.00
2023-03-06T13:45:35.662Z,7.63
2023-03-06T13:48:41.598Z,8.30
2023-03-06T13:50:55.618Z,8.10
2023-03-06T13:53:58.692Z,8.33
2023-03-06T13:57:05.983Z,8.40
2023-03-06T14:00:09.197Z,8.57
2023-03-06T14:03:01.070Z,8.00
2023-03-06T14:05:43.357Z,7.83
2023-03-06T14:08:14.945Z,7.43
2023-03-06T14:10:45.422Z,8.17
2023-03-06T14:13:20.816Z,7.13
2023-03-06T14:15:50.640Z,7.83
2023-03-06T14:18:21.697Z,7.60
2023-03-06T14:20:56.285Z,7.27
2023-03-06T14:23:29.805Z,8.37
2023-03-06T14:26:07.552Z,7.50
2023-03-06T14:28:37.162Z,7.80
2023-03-06T14:31:07.144Z,7.40
2023-03-06T14:33:43.213Z,7.73
2023-03-06T14:36:16.157Z,7.37
2023-03-06T14:38:48.974Z,7.93
2023-03-06T14:41:24.982Z,7.40
2023-03-06T14:43:53.318Z,7.50
2023-03-06T14:46:23.393Z,7.43
2023-03-06T14:48:51.458Z,7.90
2023-03-06T14:51:22.837Z,7.83
2023-03-06T14:53:52.794Z,7.77
2023-03-06T14:56:22.505Z,7.93
2023-03-06T14:58:56.109Z,8.07
2023-03-06T15:01:31.605Z,7.60
2023-03-06T15:04:01.986Z,8.03
2023-03-06T15:06:37.822Z,7.70
2023-03-06T15:09:10.174Z,7.93
2023-03-06T15:11:59.903Z,8.07
2023-03-06T15:14:37.306Z,7.40
2023-03-06T15:17:26.280Z,7.13
2023-03-06T15:19:56.074Z,8.30
2023-03-06T15:22:29.624Z,7.70
2023-03-06T15:25:20.092Z,8.37
2023-03-06T15:27:52.821Z,7.63
2023-03-06T15:30:27.776Z,7.67
2023-03-06T15:33:11.240Z,7.40
2023-03-06T15:35:39.787Z,6.40
2023-03-06T15:38:26.016Z,6.90
2023-03-06T15:40:58.287Z,6.57
2023-03-06T15:43:26.522Z,6.50
2023-03-06T15:45:59.630Z,7.20
2023-03-06T15:48:28.354Z,7.10
2023-03-06T15:50:56.187Z,6.97
2023-03-06T15:53:25.650Z,7.00
2023-03-06T15:55:54.206Z,7.30
2023-03-06T15:58:24.862Z,6.57
2023-03-06T16:00:52.802Z,6.63
2023-03-06T16:03:20.901Z,6.23
2023-03-06T16:05:48.807Z,6.93
2023-03-06T16:08:16.701Z,6.30
2023-03-06T16:10:47.609Z,6.53
2023-03-06T16:13:20.547Z,6.23
2023-03-06T16:15:51.183Z,6.33
2023-03-06T16:18:19.664Z,6.80
2023-03-06T16:20:47.723Z,6.73
2023-03-06T16:23:16.442Z,5.83
2023-03-06T16:25:49.882Z,5.80
2023-03-06T16:28:18.127Z,5.60
2023-03-06T16:30:48.507Z,5.23
2023-03-06T16:33:16.649Z,5.10
2023-03-06T16:35:46.690Z,5.40
2023-03-06T16:38:15.686Z,5.50
2023-03-06T16:40:45.091Z,4.97
2023-03-06T16:43:13.581Z,5.47
2023-03-06T16:45:42.621Z,6.10
2023-03-06T16:48:16.847Z,5.83
2023-03-06T16:50:44.837Z,6.17
2023-03-06T16:53:12.766Z,6.00
2023-03-06T16:55:40.630Z,5.70
2023-03-06T16:58:10.024Z,6.20
2023-03-06T17:00:37.941Z,6.43
2023-03-06T17:03:05.824Z,6.97
2023-03-06T17:05:34.341Z,6.60
2023-03-06T17:08:02.536Z,7.30
2023-03-06T17:10:30.565Z,6.67
2023-03-06T17:12:58.669Z,6.83
2023-03-06T17:15:27.973Z,8.57
2023-03-06T17:17:55.979Z,8.07
2023-03-06T17:20:24.458Z,8.67
2023-03-06T17:22:52.327Z,8.60
2023-03-06T17:25:20.236Z,8.30
2023-03-06T17:27:48.118Z,8.27
2023-03-06T17:30:16.693Z,8.90
2023-03-06T17:32:45.982Z,8.57
2023-03-06T17:35:13.850Z,8.77
2023-03-06T17:37:41.743Z,12.10
2023-03-06T17:40:11.419Z,13.90
2023-03-06T17:42:39.258Z,18.73
2023-03-06T17:45:09.371Z,9.40
2023-03-06T17:47:37.207Z,10.00
2023-03-06T17:50:07.058Z,10.87
2023-03-06T17:52:34.958Z,9.80
2023-03-06T17:55:02.879Z,9.47
2023-03-06T17:57:30.840Z,9.53
2023-03-06T17:59:59.157Z,9.37
2023-03-06T18:02:27.125Z,8.60
2023-03-06T18:04:57.589Z,8.80
2023-03-06T18:07:26.857Z,8.83
2023-03-06T18:09:54.718Z,9.07
2023-03-06T18:12:22.579Z,8.63
2023-03-06T18:14:50.764Z,10.13
2023-03-06T18:17:18.849Z,10.50
2023-03-06T18:19:46.704Z,11.60
2023-03-06T18:22:14.687Z,11.00
2023-03-06T18:24:43.993Z,12.13
2023-03-06T18:27:11.966Z,12.60
2023-03-06T18:29:39.812Z,13.17
2023-03-06T18:32:09.205Z,11.53
2023-03-06T18:34:37.864Z,10.17
2023-03-06T18:37:05.844Z,9.53
2023-03-06T18:39:33.703Z,9.87
2023-03-06T18:42:03.170Z,12.23
2023-03-06T18:44:31.067Z,10.63
2023-03-06T18:46:58.890Z,10.50
2023-03-06T18:49:26.989Z,11.00
2023-03-06T18:51:54.825Z,9.93
2023-03-06T18:54:24.419Z,9.87
2023-03-06T18:56:52.329Z,11.27
2023-03-06T18:59:21.597Z,11.30
2023-03-06T19:01:49.941Z,10.33
2023-03-06T19:04:17.927Z,11.97
2023-03-06T19:06:45.799Z,10.90
2023-03-06T19:09:13.757Z,11.13
2023-03-06T19:11:42.764Z,10.70
2023-03-06T19:14:10.905Z,13.43
2023-03-06T19:16:40.305Z,13.37
2023-03-06T19:19:08.235Z,12.23
2023-03-06T19:21:36.257Z,12.17
2023-03-06T19:24:04.477Z,10.87
2023-03-06T19:26:32.526Z,11.87
2023-03-06T19:29:00.485Z,11.30
2023-03-06T19:31:29.314Z,11.70
2023-03-06T19:33:58.868Z,12.43
2023-03-06T19:36:33.470Z,11.90
2023-03-06T19:39:03.704Z,12.13
2023-03-06T19:41:31.862Z,13.37
2023-03-06T19:44:02.441Z,10.67
2023-03-06T19:46:31.750Z,10.43
2023-03-06T19:49:02.252Z,10.13
2023-03-06T19:51:30.691Z,9.87
2023-03-06T19:53:59.121Z,10.07
2023-03-06T19:56:30.282Z,10.53
2023-03-06T19:58:58.410Z,11.10
2023-03-06T20:01:28.424Z,11.90
2023-03-06T20:03:58.941Z,11.47
2023-03-06T20:06:31.275Z,10.50
2023-03-06T20:08:59.130Z,10.67
2023-03-06T20:11:30.120Z,10.70
2023-03-06T20:13:59.410Z,11.17
2023-03-06T20:16:28.959Z,10.83
2023-03-06T20:18:58.972Z,11.20
2023-03-06T20:21:30.201Z,10.63
2023-03-06T20:23:58.806Z,10.67
2023-03-06T20:26:28.501Z,11.80
2023-03-06T20:28:56.904Z,12.57
2023-03-06T20:31:27.998Z,12.63
2023-03-06T20:33:58.913Z,11.80
2023-03-06T20:36:30.780Z,11.73
2023-03-06T20:39:01.106Z,10.07
2023-03-06T20:41:31.139Z,10.93
2023-03-06T20:43:59.312Z,10.30
2023-03-06T20:46:27.383Z,10.90
2023-03-06T20:48:56.007Z,10.60
2023-03-06T20:51:27.902Z,11.03
2023-03-06T20:53:57.510Z,10.50
2023-03-06T20:56:28.218Z,11.40
2023-03-06T20:58:57.076Z,11.03
2023-03-06T21:01:26.699Z,11.17
2023-03-06T21:03:56.768Z,10.80
2023-03-06T21:06:26.016Z,11.07
2023-03-06T21:08:53.918Z,10.97
2023-03-06T21:11:23.246Z,10.73
2023-03-06T21:13:51.473Z,11.47
2023-03-06T21:16:21.109Z,10.60
2023-03-06T21:18:49.637Z,10.43
2023-03-06T21:21:20.587Z,10.97
2023-03-06T21:23:49.793Z,11.47
2023-03-06T21:26:20.680Z,10.97
2023-03-06T21:28:50.288Z,11.97
2023-03-06T21:31:20.882Z,11.90
2023-03-06T21:33:50.209Z,11.23
2023-03-06T21:36:19.403Z,11.10
2023-03-06T21:38:48.747Z,12.40
2023-03-06T21:41:18.421Z,11.67
2023-03-06T21:43:46.322Z,10.67
2023-03-06T21:46:15.624Z,10.60
2023-03-06T21:48:43.544Z,10.97
2023-03-06T21:51:13.483Z,10.50
2023-03-06T21:53:43.276Z,10.80
2023-03-06T21:56:12.358Z,11.17
2023-03-06T21:58:40.538Z,10.80
2023-03-06T22:01:11.917Z,10.83
2023-03-06T22:03:41.493Z,10.80
2023-03-06T22:06:11.100Z,11.13
2023-03-06T22:08:38.980Z,10.50
2023-03-06T22:11:08.693Z,10.23
2023-03-06T22:13:36.677Z,11.00
2023-03-06T22:16:05.810Z,10.97
2023-03-06T22:18:34.125Z,11.80
2023-03-06T22:21:07.892Z,11.17
2023-03-06T22:23:35.843Z,11.07
2023-03-06T22:26:04.712Z,10.53
2023-03-06T22:28:32.690Z,10.77
2023-03-06T22:31:05.644Z,10.60
2023-03-06T22:33:33.583Z,10.93
2023-03-06T22:36:06.239Z,11.00
2023-03-06T22:38:35.099Z,10.40
2023-03-06T22:41:03.379Z,10.27
2023-03-06T22:43:31.477Z,9.33
2023-03-06T22:46:02.181Z,9.67
2023-03-06T22:48:30.245Z,10.90
2023-03-06T22:51:04.709Z,10.50
2023-03-06T22:53:33.457Z,9.63
2023-03-06T22:56:02.581Z,9.80
2023-03-06T22:58:34.501Z,10.03
2023-03-06T23:01:08.657Z,10.47
2023-03-06T23:03:37.867Z,10.67
2023-03-06T23:06:13.530Z,9.73
2023-03-06T23:08:41.753Z,10.37
2023-03-06T23:11:10.982Z,10.47
2023-03-06T23:13:39.301Z,10.67
2023-03-06T23:16:09.083Z,10.57
2023-03-06T23:18:38.614Z,10.87
2023-03-06T23:21:07.894Z,10.90
2023-03-06T23:23:37.317Z,10.70
2023-03-06T23:26:06.354Z,10.87
2023-03-06T23:28:34.891Z,10.67
2023-03-06T23:31:08.192Z,10.77
2023-03-06T23:33:36.938Z,10.63
2023-03-06T23:36:05.785Z,10.70
2023-03-06T23:38:33.756Z,10.47
2023-03-06T23:41:04.751Z,10.80
2023-03-06T23:43:33.248Z,10.20
2023-03-06T23:46:01.811Z,10.17
2023-03-06T23:48:29.935Z,10.30
2023-03-06T23:50:58.279Z,10.43
2023-03-06T23:53:26.712Z,10.33
2023-03-06T23:55:54.938Z,11.27
2023-03-06T23:58:24.194Z,11.50
